createdAt,value
2023-05-05T00:00:18.587Z,1476.00
2023-05-05T00:01:03.715Z,1456.00
2023-05-05T00:02:03.615Z,1463.00
2023-05-05T00:03:03.537Z,1466.00
2023-05-05T00:04:03.357Z,1477.00
2023-05-05T00:05:03.249Z,1492.00
2023-05-05T00:06:03.068Z,1497.00
2023-05-05T00:07:02.918Z,1493.00
2023-05-05T00:08:02.772Z,1505.00
2023-05-05T00:09:02.641Z,1491.00
2023-05-05T00:10:02.515Z,1485.00
2023-05-05T00:11:02.375Z,1480.00
2023-05-05T00:12:02.308Z,1453.00
2023-05-05T00:13:02.131Z,1435.00
2023-05-05T00:14:01.980Z,1464.00
2023-05-05T00:15:08.400Z,1465.00
2023-05-05T00:16:01.697Z,1466.00
2023-05-05T00:17:01.620Z,1467.00
2023-05-05T00:18:01.511Z,1472.00
2023-05-05T00:19:01.339Z,1475.00
2023-05-05T00:20:01.151Z,1482.00
2023-05-05T00:21:01.077Z,1451.00
2023-05-05T00:22:00.881Z,1457.00
2023-05-05T00:23:00.761Z,1461.00
2023-05-05T00:24:00.611Z,1474.00
2023-05-05T00:25:00.480Z,1459.00
2023-05-05T00:26:00.336Z,1447.00
2023-05-05T00:27:00.217Z,1459.00
2023-05-05T00:28:00.095Z,1474.00
2023-05-05T00:28:59.989Z,1457.00
2023-05-05T00:29:59.808Z,1459.00
2023-05-05T00:30:59.694Z,1470.00
2023-05-05T00:31:59.558Z,1470.00
2023-05-05T00:32:59.390Z,1462.00
2023-05-05T00:33:59.244Z,1465.00
2023-05-05T00:34:59.105Z,1463.00
2023-05-05T00:35:58.977Z,1471.00
2023-05-05T00:36:58.847Z,1457.00
2023-05-05T00:37:58.749Z,1441.00
2023-05-05T00:38:58.616Z,1445.00
2023-05-05T00:39:58.431Z,1433.00
2023-05-05T00:40:58.319Z,1445.00
2023-05-05T00:41:58.175Z,1460.00
2023-05-05T00:42:58.033Z,1433.00
2023-05-05T00:43:57.895Z,1404.00
2023-05-05T00:44:57.749Z,1408.00
2023-05-05T00:45:57.623Z,1396.00
2023-05-05T00:46:57.487Z,1394.00
2023-05-05T00:47:57.365Z,1409.00
2023-05-05T00:48:57.236Z,1404.00
2023-05-05T00:49:57.053Z,1406.00
2023-05-05T00:50:56.940Z,1407.00
2023-05-05T00:51:56.821Z,1415.00
2023-05-05T00:52:56.725Z,1403.00
2023-05-05T00:53:56.585Z,1371.00
2023-05-05T00:54:56.480Z,1367.00
2023-05-05T00:55:56.415Z,1339.00
2023-05-05T00:56:56.278Z,1375.00
2023-05-05T00:57:56.194Z,1387.00
2023-05-05T00:58:56.071Z,1408.00
2023-05-05T00:59:55.943Z,1413.00
2023-05-05T01:00:55.844Z,1392.00
2023-05-05T01:01:55.769Z,1409.00
2023-05-05T01:02:55.815Z,1388.00
2023-05-05T01:03:55.552Z,1356.00
2023-05-05T01:04:55.435Z,1359.00
2023-05-05T01:05:55.349Z,1361.00
2023-05-05T01:06:55.172Z,1346.00
2023-05-05T01:07:55.082Z,1362.00
2023-05-05T01:08:54.966Z,1333.00
2023-05-05T01:10:04.465Z,1362.00
2023-05-05T01:10:55.724Z,1364.00
2023-05-05T01:11:54.564Z,1366.00
2023-05-05T01:12:54.449Z,1340.00
2023-05-05T01:13:54.306Z,1330.00
2023-05-05T01:14:54.167Z,1308.00
2023-05-05T01:15:54.075Z,1278.00
2023-05-05T01:16:53.917Z,1275.00
2023-05-05T01:17:53.842Z,1267.00
2023-05-05T01:18:53.686Z,1269.00
2023-05-05T01:19:53.551Z,1277.00
2023-05-05T01:20:53.449Z,1283.00
2023-05-05T01:21:53.299Z,1302.00
2023-05-05T01:22:53.184Z,1307.00
2023-05-05T01:23:53.063Z,1271.00
2023-05-05T01:24:52.904Z,1260.00
2023-05-05T01:25:52.797Z,1275.00
2023-05-05T01:26:52.673Z,1272.00
2023-05-05T01:27:52.539Z,1261.00
2023-05-05T01:28:52.415Z,1280.00
2023-05-05T01:29:52.272Z,1293.00
2023-05-05T01:30:52.133Z,1251.00
2023-05-05T01:31:52.128Z,1233.00
2023-05-05T01:32:51.897Z,1235.00
2023-05-05T01:33:51.760Z,1263.00
2023-05-05T01:34:51.662Z,1271.00
2023-05-05T01:35:51.549Z,1296.00
2023-05-05T01:36:51.460Z,1301.00
2023-05-05T01:37:51.392Z,1293.00
2023-05-05T01:38:51.230Z,1281.00
2023-05-05T01:39:51.107Z,1308.00
2023-05-05T01:40:51.009Z,1330.00
2023-05-05T01:41:50.931Z,1299.00
2023-05-05T01:42:50.799Z,1242.00
2023-05-05T01:43:50.686Z,1271.00
2023-05-05T01:44:50.590Z,1285.00
2023-05-05T01:45:50.510Z,1275.00
2023-05-05T01:46:50.381Z,1256.00
2023-05-05T01:47:50.320Z,1269.00
2023-05-05T01:48:50.169Z,1286.00
2023-05-05T01:49:50.071Z,1256.00
2023-05-05T01:50:49.921Z,1271.00
2023-05-05T01:51:49.842Z,1258.00
2023-05-05T01:52:49.716Z,1254.00
2023-05-05T01:53:49.628Z,1253.00
2023-05-05T01:54:49.511Z,1274.00
2023-05-05T01:55:49.412Z,1301.00
2023-05-05T01:56:49.307Z,1303.00
2023-05-05T01:57:49.178Z,1277.00
2023-05-05T01:58:49.083Z,1277.00
2023-05-05T01:59:48.984Z,1261.00
2023-05-05T02:00:48.880Z,1248.00
2023-05-05T02:01:48.763Z,1223.00
2023-05-05T02:02:48.708Z,1205.00
2023-05-05T02:03:48.546Z,1219.00
2023-05-05T02:04:48.503Z,1216.00
2023-05-05T02:05:48.352Z,1233.00
2023-05-05T02:06:48.230Z,1229.00
2023-05-05T02:07:48.140Z,1210.00
2023-05-05T02:08:48.001Z,1211.00
2023-05-05T02:09:47.900Z,1207.00
2023-05-05T02:10:47.803Z,1195.00
2023-05-05T02:11:47.705Z,1205.00
2023-05-05T02:12:47.687Z,1152.00
2023-05-05T02:13:47.576Z,1184.00
2023-05-05T02:14:47.416Z,1180.00
2023-05-05T02:15:47.317Z,1135.00
2023-05-05T02:16:47.190Z,1160.00
2023-05-05T02:17:47.164Z,1170.00
2023-05-05T02:18:47.021Z,1204.00
2023-05-05T02:19:46.900Z,1159.00
2023-05-05T02:20:46.783Z,1148.00
2023-05-05T02:21:46.671Z,1140.00
2023-05-05T02:22:46.602Z,1152.00
2023-05-05T02:23:46.466Z,1137.00
2023-05-05T02:24:46.377Z,1148.00
2023-05-05T02:25:46.257Z,1171.00
2023-05-05T02:26:46.166Z,1166.00
2023-05-05T02:27:46.053Z,1162.00
2023-05-05T02:28:45.944Z,1187.00
2023-05-05T02:29:45.855Z,1199.00
2023-05-05T02:30:45.743Z,1187.00
2023-05-05T02:31:45.705Z,1136.00
2023-05-05T02:32:45.535Z,1125.00
2023-05-05T02:33:45.429Z,1130.00
2023-05-05T02:34:45.347Z,1107.00
2023-05-05T02:35:45.210Z,1140.00
2023-05-05T02:36:45.115Z,1140.00
2023-05-05T02:37:45.012Z,1133.00
2023-05-05T02:38:44.896Z,1153.00
2023-05-05T02:39:44.782Z,1094.00
2023-05-05T02:40:44.688Z,1094.00
2023-05-05T02:41:44.583Z,1093.00
2023-05-05T02:42:44.551Z,1053.00
2023-05-05T02:43:44.362Z,1062.00
2023-05-05T02:44:44.258Z,1045.00
2023-05-05T02:45:44.165Z,1072.00
2023-05-05T02:46:44.092Z,1080.00
2023-05-05T02:47:43.978Z,1099.00
2023-05-05T02:48:43.808Z,1100.00
2023-05-05T02:49:43.703Z,1102.00
2023-05-05T02:50:43.570Z,1105.00
2023-05-05T02:51:43.470Z,1106.00
2023-05-05T02:52:43.337Z,1100.00
2023-05-05T02:53:43.255Z,1094.00
2023-05-05T02:54:43.104Z,1110.00
2023-05-05T02:55:43.023Z,1121.00
2023-05-05T02:56:42.863Z,1108.00
2023-05-05T02:57:42.734Z,1071.00
2023-05-05T02:58:42.603Z,1087.00
2023-05-05T02:59:42.471Z,1067.00
2023-05-05T03:00:42.343Z,1081.00
2023-05-05T03:01:42.226Z,1035.00
2023-05-05T03:02:42.191Z,1053.00
2023-05-05T03:03:42.064Z,1068.00
2023-05-05T03:04:41.836Z,1015.00
2023-05-05T03:05:41.728Z,1023.00
2023-05-05T03:06:41.592Z,1048.00
2023-05-05T03:07:41.467Z,1094.00
2023-05-05T03:08:41.326Z,1109.00
2023-05-05T03:09:41.220Z,1102.00
2023-05-05T03:10:41.091Z,1062.00
2023-05-05T03:11:40.948Z,1088.00
2023-05-05T03:12:40.857Z,1068.00
2023-05-05T03:13:40.678Z,1091.00
2023-05-05T03:14:40.559Z,1074.00
2023-05-05T03:15:40.403Z,1014.00
2023-05-05T03:16:40.357Z,984.00
2023-05-05T03:17:40.270Z,1035.00
2023-05-05T03:18:40.054Z,1053.00
2023-05-05T03:19:39.933Z,1062.00
2023-05-05T03:20:39.831Z,1015.00
2023-05-05T03:21:39.737Z,1045.00
2023-05-05T03:22:39.643Z,1072.00
2023-05-05T03:23:39.523Z,1064.00
2023-05-05T03:24:39.415Z,1046.00
2023-05-05T03:25:39.291Z,1074.00
2023-05-05T03:26:39.193Z,1053.00
2023-05-05T03:27:39.100Z,1069.00
2023-05-05T03:28:38.990Z,1089.00
2023-05-05T03:29:38.891Z,1099.00
2023-05-05T03:30:38.854Z,1075.00
2023-05-05T03:31:38.717Z,1010.00
2023-05-05T03:32:38.638Z,993.00
2023-05-05T03:33:38.462Z,985.00
2023-05-05T03:34:38.350Z,970.00
2023-05-05T03:35:38.263Z,973.00
2023-05-05T03:36:38.158Z,987.00
2023-05-05T03:37:38.051Z,1004.00
2023-05-05T03:38:37.952Z,1010.00
2023-05-05T03:39:37.860Z,1032.00
2023-05-05T03:40:44.168Z,1037.00
2023-05-05T03:41:38.604Z,1038.00
2023-05-05T03:42:37.512Z,1012.00
2023-05-05T03:43:37.345Z,1035.00
2023-05-05T03:44:37.214Z,1048.00
2023-05-05T03:45:37.103Z,1077.00
2023-05-05T03:46:36.947Z,1084.00
2023-05-05T03:47:36.840Z,1101.00
2023-05-05T03:48:36.685Z,1105.00
2023-05-05T03:49:36.544Z,1064.00
2023-05-05T03:50:36.444Z,1056.00
2023-05-05T03:51:36.284Z,1070.00
2023-05-05T03:52:36.154Z,1022.00
2023-05-05T03:53:36.036Z,1037.00
2023-05-05T03:54:35.887Z,1052.00
2023-05-05T03:55:35.765Z,1044.00
2023-05-05T03:56:35.634Z,1050.00
2023-05-05T03:57:35.524Z,1005.00
2023-05-05T03:58:35.459Z,1021.00
2023-05-05T03:59:35.287Z,1058.00
2023-05-05T04:00:35.228Z,1047.00
2023-05-05T04:01:35.086Z,1027.00
2023-05-05T04:02:35.089Z,1033.00
2023-05-05T04:03:34.942Z,1056.00
2023-05-05T04:04:34.891Z,1060.00
2023-05-05T04:05:34.728Z,1071.00
2023-05-05T04:06:34.589Z,1059.00
2023-05-05T04:07:34.453Z,1042.00
2023-05-05T04:08:34.364Z,1005.00
2023-05-05T04:09:34.254Z,1040.00
2023-05-05T04:10:34.148Z,1026.00
2023-05-05T04:11:34.045Z,984.00
2023-05-05T04:12:34.009Z,1042.00
2023-05-05T04:13:33.860Z,1034.00
2023-05-05T04:14:33.746Z,1031.00
2023-05-05T04:15:33.681Z,1048.00
2023-05-05T04:16:33.562Z,1053.00
2023-05-05T04:17:33.401Z,1053.00
2023-05-05T04:18:33.243Z,1056.00
2023-05-05T04:19:33.129Z,1065.00
2023-05-05T04:20:32.976Z,1079.00
2023-05-05T04:21:32.811Z,1051.00
2023-05-05T04:22:32.702Z,1056.00
2023-05-05T04:23:32.562Z,1073.00
2023-05-05T04:24:32.462Z,1050.00
2023-05-05T04:25:32.276Z,1059.00
2023-05-05T04:26:32.131Z,1108.00
2023-05-05T04:27:31.998Z,1103.00
2023-05-05T04:28:31.859Z,1101.00
2023-05-05T04:29:31.720Z,1079.00
2023-05-05T04:30:31.568Z,1102.00
2023-05-05T04:31:31.495Z,1050.00
2023-05-05T04:32:31.338Z,1074.00
2023-05-05T04:33:31.254Z,1055.00
2023-05-05T04:34:31.124Z,1011.00
2023-05-05T04:35:31.032Z,1004.00
2023-05-05T04:36:30.916Z,1019.00
2023-05-05T04:37:30.789Z,1030.00
2023-05-05T04:38:30.748Z,987.00
2023-05-05T04:39:30.594Z,993.00
2023-05-05T04:40:30.521Z,1048.00
2023-05-05T04:41:30.383Z,1002.00
2023-05-05T04:42:30.289Z,1023.00
2023-05-05T04:43:30.179Z,1048.00
2023-05-05T04:44:30.110Z,1034.00
2023-05-05T04:45:29.979Z,1011.00
2023-05-05T04:46:29.866Z,1013.00
2023-05-05T04:47:29.778Z,1000.00
2023-05-05T04:48:29.697Z,987.00
2023-05-05T04:49:29.539Z,996.00
2023-05-05T04:50:29.458Z,1016.00
2023-05-05T04:51:29.338Z,1035.00
2023-05-05T04:52:29.240Z,1038.00
2023-05-05T04:53:29.142Z,1028.00
2023-05-05T04:54:29.010Z,1032.00
2023-05-05T04:55:28.906Z,1003.00
2023-05-05T04:56:28.801Z,1016.00
2023-05-05T04:57:28.705Z,997.00
2023-05-05T04:58:28.651Z,989.00
2023-05-05T04:59:28.513Z,1011.00
2023-05-05T05:00:28.401Z,985.00
2023-05-05T05:01:28.289Z,1026.00
2023-05-05T05:02:28.318Z,1059.00
2023-05-05T05:03:28.110Z,1055.00
2023-05-05T05:04:27.969Z,1028.00
2023-05-05T05:05:27.863Z,1041.00
2023-05-05T05:06:27.767Z,1085.00
2023-05-05T05:07:27.745Z,1084.00
2023-05-05T05:08:27.574Z,1079.00
2023-05-05T05:09:27.450Z,1042.00
2023-05-05T05:10:27.330Z,1053.00
2023-05-05T05:11:27.227Z,1047.00
2023-05-05T05:12:27.138Z,1009.00
2023-05-05T05:13:27.072Z,1023.00
2023-05-05T05:14:26.904Z,1033.00
2023-05-05T05:15:26.792Z,1024.00
2023-05-05T05:16:26.724Z,1035.00
2023-05-05T05:17:26.606Z,1057.00
2023-05-05T05:18:26.510Z,1026.00
2023-05-05T05:19:26.412Z,1054.00
2023-05-05T05:20:26.266Z,1058.00
2023-05-05T05:21:26.153Z,1060.00
2023-05-05T05:22:26.027Z,1044.00
2023-05-05T05:23:25.918Z,1064.00
2023-05-05T05:24:25.820Z,1065.00
2023-05-05T05:25:25.655Z,1068.00
2023-05-05T05:26:25.593Z,1072.00
2023-05-05T05:27:25.388Z,1078.00
2023-05-05T05:28:25.249Z,1111.00
2023-05-05T05:29:25.119Z,1123.00
2023-05-05T05:30:25.006Z,1139.00
2023-05-05T05:31:24.917Z,1153.00
2023-05-05T05:32:24.761Z,1155.00
2023-05-05T05:33:24.628Z,1151.00
2023-05-05T05:34:24.476Z,1191.00
2023-05-05T05:35:24.374Z,1222.00
2023-05-05T05:36:24.196Z,1260.00
2023-05-05T05:37:24.099Z,1318.00
2023-05-05T05:38:23.978Z,1336.00
2023-05-05T05:39:23.835Z,1405.00
2023-05-05T05:40:23.642Z,1519.00
2023-05-05T05:41:23.561Z,1560.00
2023-05-05T05:42:23.395Z,1600.00
2023-05-05T05:43:23.220Z,1667.00
2023-05-05T05:44:23.087Z,1669.00
2023-05-05T05:45:22.965Z,1678.00
2023-05-05T05:46:22.901Z,1712.00
2023-05-05T05:47:22.685Z,1674.00
2023-05-05T05:48:22.555Z,1702.00
2023-05-05T05:49:22.423Z,1771.00
2023-05-05T05:50:22.469Z,1888.00
2023-05-05T05:51:22.212Z,2068.00
2023-05-05T05:52:22.011Z,2101.00
2023-05-05T05:53:21.979Z,2129.00
2023-05-05T05:54:21.741Z,2136.00
2023-05-05T05:55:21.672Z,2111.00
2023-05-05T05:56:21.467Z,2063.00
2023-05-05T05:57:21.349Z,1985.00
2023-05-05T05:58:21.207Z,1901.00
2023-05-05T05:59:21.083Z,1843.00
2023-05-05T06:00:21.044Z,1720.00
2023-05-05T06:01:20.770Z,1622.00
2023-05-05T06:02:20.710Z,1560.00
2023-05-05T06:03:20.668Z,1485.00
2023-05-05T06:04:20.472Z,1451.00
2023-05-05T06:05:20.233Z,1356.00
2023-05-05T06:06:20.087Z,1331.00
2023-05-05T06:07:19.983Z,1324.00
2023-05-05T06:08:19.854Z,1322.00
2023-05-05T06:09:20.569Z,1336.00
2023-05-05T06:10:27.868Z,1313.00
2023-05-05T06:11:20.405Z,1294.00
2023-05-05T06:12:19.276Z,1313.00
2023-05-05T06:13:19.140Z,1310.00
2023-05-05T06:14:20.142Z,1326.00
2023-05-05T06:15:19.145Z,1315.00
2023-05-05T06:16:19.140Z,1328.00
2023-05-05T06:17:18.833Z,1366.00
2023-05-05T06:18:18.843Z,1442.00
2023-05-05T06:19:19.064Z,1589.00
2023-05-05T06:20:18.472Z,1671.00
2023-05-05T06:21:18.409Z,1743.00
2023-05-05T06:22:18.190Z,1821.00
2023-05-05T06:23:18.096Z,2043.00
2023-05-05T06:24:17.922Z,2138.00
2023-05-05T06:25:17.833Z,2187.00
2023-05-05T06:26:17.690Z,2225.00
2023-05-05T06:27:17.578Z,2257.00
2023-05-05T06:28:17.470Z,2253.00
2023-05-05T06:29:17.324Z,2284.00
2023-05-05T06:30:17.252Z,2324.00
2023-05-05T06:31:17.158Z,2392.00
2023-05-05T06:32:17.038Z,2427.00
2023-05-05T06:33:16.973Z,2440.00
2023-05-05T06:34:16.833Z,2480.00
2023-05-05T06:35:16.697Z,2482.00
2023-05-05T06:36:16.558Z,2491.00
2023-05-05T06:37:17.140Z,2517.00
2023-05-05T06:38:16.279Z,2554.00
2023-05-05T06:39:16.296Z,2634.00
2023-05-05T06:40:15.959Z,2691.00
2023-05-05T06:41:15.900Z,2711.00
2023-05-05T06:42:15.654Z,2726.00
2023-05-05T06:43:15.562Z,2763.00
2023-05-05T06:44:15.641Z,2792.00
2023-05-05T06:45:15.389Z,2782.00
2023-05-05T06:46:15.389Z,2773.00
2023-05-05T06:47:15.407Z,2770.00
2023-05-05T06:48:15.149Z,2785.00
2023-05-05T06:49:15.009Z,2786.00
2023-05-05T06:50:14.866Z,2788.00
2023-05-05T06:51:14.676Z,2788.00
2023-05-05T06:52:14.544Z,2788.00
2023-05-05T06:53:14.407Z,2781.00
2023-05-05T06:54:14.328Z,2760.00
2023-05-05T06:55:14.166Z,2744.00
2023-05-05T06:56:13.957Z,2727.00
2023-05-05T06:57:13.818Z,2695.00
2023-05-05T06:58:13.738Z,2685.00
2023-05-05T06:59:13.783Z,2661.00
2023-05-05T07:00:13.565Z,2628.00
2023-05-05T07:01:13.418Z,2592.00
2023-05-05T07:02:13.213Z,2608.00
2023-05-05T07:03:13.178Z,2604.00
2023-05-05T07:04:13.097Z,2606.00
2023-05-05T07:05:12.794Z,2593.00
2023-05-05T07:06:12.662Z,2591.00
2023-05-05T07:07:12.523Z,2562.00
2023-05-05T07:08:12.383Z,2554.00
2023-05-05T07:09:12.254Z,2546.00
2023-05-05T07:10:12.080Z,2532.00
2023-05-05T07:11:11.950Z,2517.00
2023-05-05T07:12:11.819Z,2501.00
2023-05-05T07:13:11.801Z,2472.00
2023-05-05T07:14:11.538Z,2481.00
2023-05-05T07:15:23.797Z,2454.00
2023-05-05T07:16:12.321Z,2455.00
2023-05-05T07:17:11.134Z,2455.00
2023-05-05T07:18:11.539Z,2455.00
2023-05-05T07:19:10.863Z,2448.00
2023-05-05T07:20:10.938Z,2415.00
2023-05-05T07:21:10.538Z,2394.00
2023-05-05T07:22:10.407Z,2361.00
2023-05-05T07:23:11.089Z,2366.00
2023-05-05T07:24:10.211Z,2338.00
2023-05-05T07:25:10.161Z,2353.00
2023-05-05T07:26:09.832Z,2329.00
2023-05-05T07:27:09.694Z,2339.00
2023-05-05T07:28:09.555Z,2353.00
2023-05-05T07:29:09.426Z,2354.00
2023-05-05T07:30:13.085Z,2357.00
2023-05-05T07:31:10.178Z,2354.00
2023-05-05T07:32:09.028Z,2360.00
2023-05-05T07:33:08.953Z,2355.00
2023-05-05T07:34:08.682Z,2360.00
2023-05-05T07:35:09.122Z,2368.00
2023-05-05T07:36:08.550Z,2385.00
2023-05-05T07:37:08.356Z,2398.00
2023-05-05T07:38:08.785Z,2428.00
2023-05-05T07:39:08.209Z,2383.00
2023-05-05T07:40:08.940Z,2356.00
2023-05-05T07:41:08.024Z,2288.00
2023-05-05T07:42:08.733Z,2315.00
2023-05-05T07:43:07.842Z,2337.00
2023-05-05T07:44:07.744Z,2296.00
2023-05-05T07:45:07.582Z,2239.00
2023-05-05T07:46:07.571Z,2107.00
2023-05-05T07:47:07.445Z,2116.00
2023-05-05T07:48:07.192Z,2107.00
2023-05-05T07:49:07.041Z,2103.00
2023-05-05T07:50:07.204Z,2060.00
2023-05-05T07:52:37.097Z,500.00
2023-05-05T07:53:26.345Z,500.00
2023-05-05T07:54:25.332Z,500.00
2023-05-05T07:55:25.300Z,500.00
2023-05-05T07:56:25.339Z,500.00
2023-05-05T07:57:25.381Z,500.00
2023-05-05T07:58:25.468Z,500.00
2023-05-05T07:59:25.433Z,495.00
2023-05-05T08:00:25.274Z,475.00
2023-05-05T08:01:25.271Z,427.00
2023-05-05T08:02:25.471Z,400.00
2023-05-05T08:03:25.381Z,400.00
2023-05-05T08:04:25.225Z,400.00
2023-05-05T08:05:25.182Z,400.00
2023-05-05T08:06:25.233Z,400.00
2023-05-05T08:07:25.171Z,400.00
2023-05-05T08:08:25.329Z,400.00
2023-05-05T08:09:25.201Z,400.00
2023-05-05T08:10:25.178Z,400.00
2023-05-05T08:11:27.739Z,400.00
2023-05-05T08:12:25.132Z,400.00
2023-05-05T08:13:25.102Z,400.00
2023-05-05T08:14:25.154Z,400.00
2023-05-05T08:15:25.080Z,400.00
2023-05-05T08:16:25.102Z,400.00
2023-05-05T08:17:25.111Z,400.00
2023-05-05T08:18:25.114Z,400.00
2023-05-05T08:19:29.149Z,400.00
2023-05-05T08:20:25.047Z,400.00
2023-05-05T08:21:25.050Z,400.00
2023-05-05T08:22:25.041Z,400.00
2023-05-05T08:23:25.044Z,400.00
2023-05-05T08:24:25.144Z,400.00
2023-05-05T08:25:25.089Z,400.00
2023-05-05T08:26:25.045Z,400.00
2023-05-05T08:27:25.080Z,400.00
2023-05-05T08:28:25.003Z,400.00
2023-05-05T08:29:25.591Z,400.00
2023-05-05T08:30:24.981Z,400.00
2023-05-05T08:31:25.058Z,400.00
2023-05-05T08:32:25.919Z,400.00
2023-05-05T08:33:25.012Z,400.00
2023-05-05T08:34:25.099Z,400.00
2023-05-05T08:35:24.982Z,400.00
2023-05-05T08:36:24.955Z,501.00
2023-05-05T08:37:24.981Z,563.00
2023-05-05T08:38:25.056Z,612.00
2023-05-05T08:39:25.090Z,735.00
2023-05-05T08:40:25.099Z,743.00
2023-05-05T08:41:25.046Z,778.00
2023-05-05T08:42:36.055Z,741.00
2023-05-05T08:43:26.052Z,629.00
2023-05-05T08:44:25.004Z,520.00
2023-05-05T08:45:25.027Z,462.00
2023-05-05T08:46:25.058Z,583.00
2023-05-05T08:47:25.001Z,638.00
2023-05-05T08:48:24.936Z,601.00
2023-05-05T08:49:24.929Z,539.00
2023-05-05T08:50:25.031Z,529.00
2023-05-05T08:51:24.936Z,549.00
2023-05-05T08:52:25.048Z,510.00
2023-05-05T08:53:25.039Z,482.00
2023-05-05T08:54:25.007Z,448.00
2023-05-05T08:55:25.268Z,482.00
2023-05-05T08:56:25.532Z,492.00
2023-05-05T08:57:24.979Z,533.00
2023-05-05T08:58:26.972Z,487.00
2023-05-05T08:59:25.082Z,498.00
2023-05-05T09:00:24.913Z,485.00
2023-05-05T09:01:24.912Z,514.00
2023-05-05T09:02:25.006Z,617.00
2023-05-05T09:03:24.933Z,725.00
2023-05-05T09:04:24.830Z,868.00
2023-05-05T09:05:24.826Z,918.00
2023-05-05T09:06:24.919Z,946.00
2023-05-05T09:07:24.758Z,992.00
2023-05-05T09:08:24.757Z,1048.00
2023-05-05T09:09:24.723Z,1051.00
2023-05-05T09:10:24.717Z,1058.00
2023-05-05T09:11:24.686Z,1073.00
2023-05-05T09:12:24.658Z,1101.00
2023-05-05T09:13:24.676Z,1084.00
2023-05-05T09:14:24.628Z,1063.00
2023-05-05T09:15:24.596Z,1029.00
2023-05-05T09:16:24.678Z,998.00
2023-05-05T09:17:24.577Z,1055.00
2023-05-05T09:18:24.566Z,1026.00
2023-05-05T09:19:24.533Z,1019.00
2023-05-05T09:20:24.502Z,1039.00
2023-05-05T09:21:24.516Z,997.00
2023-05-05T09:22:24.531Z,1088.00
2023-05-05T09:23:24.445Z,1098.00
2023-05-05T09:24:24.443Z,1125.00
2023-05-05T09:25:24.474Z,1183.00
2023-05-05T09:26:24.448Z,1222.00
2023-05-05T09:27:24.458Z,1223.00
2023-05-05T09:28:24.483Z,1166.00
2023-05-05T09:29:24.493Z,1232.00
2023-05-05T09:30:24.582Z,1271.00
2023-05-05T09:31:24.628Z,1377.00
2023-05-05T09:32:25.159Z,1435.00
2023-05-05T09:33:24.531Z,1455.00
2023-05-05T09:34:24.564Z,1479.00
2023-05-05T09:35:24.543Z,1481.00
2023-05-05T09:36:24.543Z,1553.00
2023-05-05T09:37:25.048Z,1580.00
2023-05-05T09:38:24.616Z,1524.00
2023-05-05T09:39:24.548Z,1517.00
2023-05-05T09:40:24.600Z,1539.00
2023-05-05T09:41:24.562Z,1560.00
2023-05-05T09:42:24.571Z,1597.00
2023-05-05T09:43:24.598Z,1604.00
2023-05-05T09:44:24.637Z,1589.00
2023-05-05T09:45:25.672Z,1483.00
2023-05-05T09:46:24.825Z,1552.00
2023-05-05T09:47:29.889Z,1590.00
2023-05-05T09:48:24.577Z,1592.00
2023-05-05T09:49:24.547Z,1610.00
2023-05-05T09:50:24.464Z,1631.00
2023-05-05T09:51:24.456Z,1668.00
2023-05-05T09:52:24.392Z,1851.00
2023-05-05T09:53:24.491Z,1904.00
2023-05-05T09:54:24.509Z,1955.00
2023-05-05T09:55:24.294Z,2151.00
2023-05-05T09:56:24.299Z,2279.00
2023-05-05T09:57:24.250Z,2425.00
2023-05-05T09:58:24.221Z,2421.00
2023-05-05T09:59:24.703Z,2432.00
2023-05-05T10:00:24.102Z,2097.00
2023-05-05T10:01:24.083Z,2028.00
2023-05-05T10:02:24.044Z,1986.00
2023-05-05T10:03:24.001Z,1890.00
2023-05-05T10:04:24.054Z,1908.00
2023-05-05T10:05:23.967Z,1972.00
2023-05-05T10:06:23.893Z,2118.00
2023-05-05T10:07:23.857Z,1623.00
2023-05-05T10:08:23.811Z,1507.00
2023-05-05T10:09:23.877Z,1651.00
2023-05-05T10:10:23.815Z,1748.00
2023-05-05T10:11:23.710Z,1981.00
2023-05-05T10:12:23.675Z,2423.00
2023-05-05T10:13:23.669Z,2583.00
2023-05-05T10:14:23.598Z,2697.00
2023-05-05T10:15:23.568Z,2718.00
2023-05-05T10:16:23.637Z,2805.00
2023-05-05T10:17:23.480Z,2839.00
2023-05-05T10:18:23.599Z,2889.00
2023-05-05T10:19:23.413Z,2942.00
2023-05-05T10:20:23.378Z,2991.00
2023-05-05T10:21:23.307Z,3089.00
2023-05-05T10:22:23.292Z,3111.00
2023-05-05T10:23:23.321Z,3124.00
2023-05-05T10:24:23.201Z,3130.00
2023-05-05T10:25:23.151Z,2962.00
2023-05-05T10:26:23.389Z,2964.00
2023-05-05T10:27:23.117Z,2995.00
2023-05-05T10:28:23.128Z,3006.00
2023-05-05T10:29:23.016Z,3065.00
2023-05-05T10:30:22.953Z,3189.00
2023-05-05T10:31:26.419Z,3214.00
2023-05-05T10:32:50.259Z,3216.00
2023-05-05T10:34:23.098Z,3220.00
2023-05-05T10:35:23.586Z,3222.00
2023-05-05T10:36:23.444Z,3255.00
2023-05-05T10:37:22.700Z,3323.00
2023-05-05T10:38:24.116Z,3424.00
2023-05-05T10:39:22.719Z,3551.00
2023-05-05T10:40:22.673Z,3598.00
2023-05-05T10:41:22.536Z,3564.00
2023-05-05T10:42:22.527Z,3544.00
2023-05-05T10:43:22.419Z,3540.00
2023-05-05T10:44:22.364Z,3471.00
2023-05-05T10:45:22.368Z,3513.00
2023-05-05T10:46:22.337Z,3537.00
2023-05-05T10:47:22.279Z,3534.00
2023-05-05T10:48:22.222Z,3559.00
2023-05-05T10:49:22.266Z,3559.00
2023-05-05T10:50:22.120Z,3552.00
2023-05-05T10:51:35.391Z,3564.00
2023-05-05T10:52:23.019Z,3561.00
2023-05-05T10:53:22.061Z,3560.00
2023-05-05T10:54:21.979Z,3554.00
2023-05-05T10:55:21.887Z,3538.00
2023-05-05T10:56:21.850Z,3560.00
2023-05-05T10:57:21.774Z,3562.00
2023-05-05T10:58:21.880Z,3582.00
2023-05-05T10:59:21.673Z,3603.00
2023-05-05T11:00:21.648Z,3574.00
2023-05-05T11:01:21.629Z,3547.00
2023-05-05T11:02:21.537Z,3588.00
2023-05-05T11:03:21.553Z,3575.00
2023-05-05T11:04:21.484Z,3593.00
2023-05-05T11:05:21.422Z,3576.00
2023-05-05T11:06:21.357Z,3553.00
2023-05-05T11:07:21.355Z,3531.00
2023-05-05T11:08:21.238Z,3522.00
2023-05-05T11:09:21.191Z,3532.00
2023-05-05T11:10:21.315Z,3584.00
2023-05-05T11:11:21.095Z,3594.00
2023-05-05T11:12:21.117Z,3605.00
2023-05-05T11:13:21.247Z,3623.00
2023-05-05T11:14:21.031Z,3632.00
2023-05-05T11:15:20.987Z,3651.00
2023-05-05T11:16:21.035Z,3681.00
2023-05-05T11:17:20.980Z,3690.00
2023-05-05T11:18:20.946Z,3705.00
2023-05-05T11:19:20.894Z,3629.00
2023-05-05T11:20:21.032Z,3544.00
2023-05-05T11:21:21.614Z,3358.00
2023-05-05T11:22:20.823Z,3184.00
2023-05-05T11:23:20.832Z,3081.00
2023-05-05T11:24:20.797Z,3004.00
2023-05-05T11:25:21.172Z,2957.00
2023-05-05T11:26:20.748Z,2857.00
2023-05-05T11:27:20.810Z,2815.00
2023-05-05T11:28:20.711Z,2810.00
2023-05-05T11:29:20.808Z,2777.00
2023-05-05T11:30:20.747Z,2740.00
2023-05-05T11:31:20.697Z,2748.00
2023-05-05T11:32:20.670Z,2758.00
2023-05-05T11:33:20.682Z,2707.00
2023-05-05T11:34:20.647Z,2649.00
2023-05-05T11:35:20.686Z,2597.00
2023-05-05T11:36:20.684Z,2562.00
2023-05-05T11:37:20.680Z,2533.00
2023-05-05T11:38:20.714Z,2552.00
2023-05-05T11:39:20.708Z,2571.00
2023-05-05T11:40:20.719Z,2606.00
2023-05-05T11:41:20.686Z,2575.00
2023-05-05T11:42:20.681Z,2574.00
2023-05-05T11:43:20.657Z,2686.00
2023-05-05T11:44:20.618Z,2686.00
2023-05-05T11:45:20.607Z,2692.00
2023-05-05T11:46:20.696Z,2688.00
2023-05-05T11:47:20.525Z,2605.00
2023-05-05T11:48:20.464Z,2596.00
2023-05-05T11:49:20.457Z,2546.00
2023-05-05T11:50:20.397Z,2528.00
2023-05-05T11:51:20.364Z,2487.00
2023-05-05T11:52:20.339Z,2450.00
2023-05-05T11:53:20.390Z,2414.00
2023-05-05T11:54:20.259Z,2350.00
2023-05-05T11:55:20.226Z,2313.00
2023-05-05T11:56:20.199Z,2281.00
2023-05-05T11:57:20.164Z,2238.00
2023-05-05T11:58:20.131Z,2221.00
2023-05-05T11:59:20.100Z,2185.00
2023-05-05T12:00:20.187Z,2162.00
2023-05-05T12:01:20.141Z,2154.00
2023-05-05T12:02:20.381Z,2152.00
2023-05-05T12:03:20.206Z,2155.00
2023-05-05T12:04:20.090Z,2173.00
2023-05-05T12:05:20.180Z,2125.00
2023-05-05T12:06:20.211Z,2082.00
2023-05-05T12:07:20.210Z,2069.00
2023-05-05T12:08:20.149Z,2082.00
2023-05-05T12:09:20.120Z,2069.00